createdAt,value
2023-11-07T00:00:45.668Z,20.67
2023-11-07T00:03:12.283Z,20.66
2023-11-07T00:05:38.891Z,20.69
2023-11-07T00:08:05.756Z,20.70
2023-11-07T00:10:33.549Z,20.73
2023-11-07T00:13:00.094Z,20.72
2023-11-07T00:15:26.712Z,20.76
2023-11-07T00:17:53.241Z,20.76
2023-11-07T00:20:20.183Z,20.75
2023-11-07T00:22:46.649Z,20.76
2023-11-07T00:25:13.162Z,20.75
2023-11-07T00:27:39.689Z,20.76
2023-11-07T00:30:06.598Z,20.75
2023-11-07T00:32:33.488Z,20.75
2023-11-07T00:34:59.932Z,20.75
2023-11-07T00:37:26.358Z,20.74
2023-11-07T00:39:52.791Z,20.74
2023-11-07T00:42:19.672Z,20.75
2023-11-07T00:44:46.122Z,20.75
2023-11-07T00:47:12.547Z,20.74
2023-11-07T00:49:39.000Z,20.73
2023-11-07T00:52:05.586Z,20.73
2023-11-07T00:54:32.267Z,20.74
2023-11-07T00:56:58.713Z,20.75
2023-11-07T00:59:25.287Z,20.75
2023-11-07T01:01:51.739Z,20.77
2023-11-07T01:04:18.293Z,20.76
2023-11-07T01:06:44.979Z,20.77
2023-11-07T01:09:13.269Z,20.76
2023-11-07T01:11:41.064Z,20.75
2023-11-07T01:14:08.110Z,20.76
2023-11-07T01:16:35.131Z,20.74
2023-11-07T01:19:02.014Z,20.74
2023-11-07T01:21:28.627Z,20.74
2023-11-07T01:23:55.083Z,20.77
2023-11-07T01:26:21.536Z,20.77
2023-11-07T01:28:48.247Z,20.79
2023-11-07T01:31:14.769Z,20.78
2023-11-07T01:33:41.395Z,20.77
2023-11-07T01:36:10.251Z,20.78
2023-11-07T01:38:36.810Z,20.77
2023-11-07T01:41:03.324Z,20.77
2023-11-07T01:43:29.976Z,20.77
2023-11-07T01:46:00.443Z,20.77
2023-11-07T01:48:27.467Z,20.77
2023-11-07T01:50:54.710Z,20.76
2023-11-07T01:53:21.698Z,20.76
2023-11-07T01:55:48.307Z,20.76
2023-11-07T01:58:15.612Z,20.77
2023-11-07T02:00:42.538Z,20.76
2023-11-07T02:03:09.071Z,20.77
2023-11-07T02:05:35.863Z,20.78
2023-11-07T02:08:02.938Z,20.80
2023-11-07T02:10:29.350Z,20.78
2023-11-07T02:12:56.003Z,20.75
2023-11-07T02:15:23.818Z,20.69
2023-11-07T02:17:50.711Z,20.67
2023-11-07T02:20:18.828Z,20.66
2023-11-07T02:22:49.733Z,20.71
2023-11-07T02:25:16.999Z,20.73
2023-11-07T02:27:44.076Z,20.75
2023-11-07T02:30:13.524Z,20.75
2023-11-07T02:32:42.544Z,20.75
2023-11-07T02:35:12.479Z,20.75
2023-11-07T02:37:39.460Z,20.74
2023-11-07T02:40:07.632Z,20.74
2023-11-07T02:42:34.736Z,20.75
2023-11-07T02:45:01.487Z,20.76
2023-11-07T02:47:28.075Z,20.77
2023-11-07T02:49:55.226Z,20.77
2023-11-07T02:52:22.180Z,20.78
2023-11-07T02:54:49.497Z,20.79
2023-11-07T02:57:16.138Z,20.78
2023-11-07T02:59:45.056Z,20.79
2023-11-07T03:02:11.643Z,20.78
2023-11-07T03:04:38.162Z,20.78
2023-11-07T03:07:04.714Z,20.78
2023-11-07T03:09:31.328Z,20.77
2023-11-07T03:11:57.887Z,20.78
2023-11-07T03:14:24.399Z,20.76
2023-11-07T03:16:50.900Z,20.76
2023-11-07T03:19:17.523Z,20.77
2023-11-07T03:21:44.217Z,20.75
2023-11-07T03:24:11.056Z,20.75
2023-11-07T03:26:37.605Z,20.77
2023-11-07T03:29:04.421Z,20.76
2023-11-07T03:31:31.812Z,20.76
2023-11-07T03:33:58.413Z,20.76
2023-11-07T03:36:25.030Z,20.75
2023-11-07T03:38:51.986Z,20.75
2023-11-07T03:41:18.574Z,20.74
2023-11-07T03:43:45.048Z,20.75
2023-11-07T03:46:13.627Z,20.76
2023-11-07T03:48:40.285Z,20.75
2023-11-07T03:51:07.143Z,20.74
2023-11-07T03:53:33.939Z,20.72
2023-11-07T03:56:00.995Z,20.73
2023-11-07T03:58:27.560Z,20.72
2023-11-07T04:00:54.091Z,20.73
2023-11-07T04:03:20.727Z,20.73
2023-11-07T04:05:47.431Z,20.75
2023-11-07T04:08:13.964Z,20.75
2023-11-07T04:10:40.431Z,20.75
2023-11-07T04:13:06.884Z,20.75
2023-11-07T04:15:33.476Z,20.75
2023-11-07T04:18:00.273Z,20.74
2023-11-07T04:20:26.863Z,20.74
2023-11-07T04:22:55.685Z,20.74
2023-11-07T04:25:22.135Z,20.75
2023-11-07T04:27:48.811Z,20.74
2023-11-07T04:30:16.293Z,20.74
2023-11-07T04:32:42.927Z,20.75
2023-11-07T04:35:13.243Z,20.75
2023-11-07T04:37:40.016Z,20.74
2023-11-07T04:40:08.331Z,20.73
2023-11-07T04:42:34.994Z,20.73
2023-11-07T04:45:01.613Z,20.70
2023-11-07T04:47:28.976Z,20.71
2023-11-07T04:49:59.342Z,20.72
2023-11-07T04:52:25.981Z,20.72
2023-11-07T04:54:52.512Z,20.74
2023-11-07T04:57:18.990Z,20.73
2023-11-07T04:59:45.505Z,20.71
2023-11-07T05:02:12.010Z,20.71
2023-11-07T05:04:38.599Z,20.70
2023-11-07T05:07:05.160Z,20.70
2023-11-07T05:09:31.701Z,20.71
2023-11-07T05:12:00.509Z,20.73
2023-11-07T05:14:29.264Z,20.74
2023-11-07T05:16:56.009Z,20.74
2023-11-07T05:19:22.623Z,20.74
2023-11-07T05:21:49.093Z,20.73
2023-11-07T05:24:17.008Z,20.72
2023-11-07T05:26:45.190Z,20.70
2023-11-07T05:29:15.113Z,20.68
2023-11-07T05:31:41.982Z,20.70
2023-11-07T05:34:08.629Z,20.72
2023-11-07T05:36:35.325Z,20.74
2023-11-07T05:39:01.920Z,20.74
2023-11-07T05:41:28.700Z,20.75
2023-11-07T05:43:55.472Z,20.75
2023-11-07T05:46:22.983Z,20.75
2023-11-07T05:48:52.715Z,20.74
2023-11-07T05:51:20.558Z,20.76
2023-11-07T05:53:47.160Z,20.74
2023-11-07T05:56:13.665Z,20.74
2023-11-07T05:58:40.205Z,20.70
2023-11-07T06:01:06.691Z,20.72
2023-11-07T06:03:33.740Z,20.71
2023-11-07T06:06:00.444Z,20.70
2023-11-07T06:08:26.958Z,20.72
2023-11-07T06:10:53.486Z,20.73
2023-11-07T06:13:20.156Z,20.73
2023-11-07T06:15:46.806Z,20.72
2023-11-07T06:18:13.356Z,20.73
2023-11-07T06:20:40.286Z,20.73
2023-11-07T06:23:06.884Z,20.72
2023-11-07T06:25:33.986Z,20.72
2023-11-07T06:28:00.453Z,20.74
2023-11-07T06:30:31.413Z,20.75
2023-11-07T06:32:58.729Z,20.75
2023-11-07T06:35:25.477Z,20.75
2023-11-07T06:37:51.961Z,20.74
2023-11-07T06:40:19.853Z,20.74
2023-11-07T06:42:47.250Z,20.72
2023-11-07T06:45:14.407Z,20.74
2023-11-07T06:47:45.369Z,20.74
2023-11-07T06:50:13.916Z,20.73
2023-11-07T06:52:48.828Z,20.72
2023-11-07T06:55:16.876Z,20.74
2023-11-07T06:57:43.803Z,20.73
2023-11-07T07:00:10.950Z,20.71
2023-11-07T07:02:38.659Z,20.72
2023-11-07T07:05:05.622Z,20.73
2023-11-07T07:07:32.196Z,20.73
2023-11-07T07:10:01.733Z,20.75
2023-11-07T07:12:29.576Z,20.74
2023-11-07T07:14:56.097Z,20.74
2023-11-07T07:17:23.924Z,20.74
2023-11-07T07:19:50.388Z,20.74
2023-11-07T07:22:16.992Z,20.73
2023-11-07T07:24:43.678Z,20.72
2023-11-07T07:27:12.986Z,20.73
2023-11-07T07:29:39.599Z,20.72
2023-11-07T07:32:06.405Z,20.73
2023-11-07T07:34:33.488Z,20.73
2023-11-07T07:37:00.073Z,20.75
2023-11-07T07:39:30.606Z,20.74
2023-11-07T07:41:59.116Z,20.76
2023-11-07T07:44:26.804Z,20.78
2023-11-07T07:46:57.878Z,20.81
2023-11-07T07:49:24.600Z,20.84
2023-11-07T07:51:53.222Z,20.86
2023-11-07T07:54:43.266Z,20.87
2023-11-07T07:57:10.754Z,20.91
2023-11-07T07:59:42.802Z,20.96
2023-11-07T08:02:09.931Z,21.01
2023-11-07T08:04:36.643Z,21.03
2023-11-07T08:07:03.211Z,21.05
2023-11-07T08:09:30.344Z,21.07
2023-11-07T08:12:01.830Z,21.09
2023-11-07T08:14:30.782Z,21.14
2023-11-07T08:16:57.234Z,21.18
2023-11-07T08:19:25.713Z,21.20
2023-11-07T08:21:52.304Z,21.25
2023-11-07T08:24:19.263Z,21.30
2023-11-07T08:26:45.847Z,21.34
2023-11-07T08:29:12.383Z,21.37
2023-11-07T08:31:39.410Z,21.41
2023-11-07T08:34:06.371Z,21.42
2023-11-07T08:36:35.637Z,21.48
2023-11-07T08:39:03.987Z,21.51
2023-11-07T08:41:30.458Z,21.53
2023-11-07T08:43:56.906Z,21.57
2023-11-07T08:46:28.762Z,21.58
2023-11-07T08:48:56.181Z,21.59
2023-11-07T08:51:22.687Z,21.59
2023-11-07T08:53:49.294Z,21.61
2023-11-07T08:56:15.997Z,21.65
2023-11-07T08:58:42.417Z,21.66
2023-11-07T09:01:11.544Z,21.68
2023-11-07T09:03:39.256Z,21.70
2023-11-07T09:06:06.518Z,21.70
2023-11-07T09:08:33.558Z,21.72
2023-11-07T09:11:00.004Z,21.76
2023-11-07T09:13:28.827Z,21.75
2023-11-07T09:15:55.576Z,21.75
2023-11-07T09:18:23.085Z,21.74
2023-11-07T09:20:50.071Z,21.78
2023-11-07T09:23:16.535Z,21.80
2023-11-07T09:25:42.995Z,21.81
2023-11-07T09:28:09.432Z,21.81
2023-11-07T09:30:35.895Z,21.84
2023-11-07T09:33:08.752Z,21.83
2023-11-07T09:35:37.132Z,21.84
2023-11-07T09:38:05.018Z,21.86
2023-11-07T09:40:31.745Z,21.85
2023-11-07T09:42:58.487Z,21.88
2023-11-07T09:45:25.362Z,21.88
2023-11-07T09:47:52.367Z,21.88
2023-11-07T09:50:20.244Z,21.91
2023-11-07T09:52:47.789Z,21.91
2023-11-07T09:55:17.184Z,21.92
2023-11-07T09:58:05.382Z,21.93
2023-11-07T10:00:40.191Z,21.94
2023-11-07T10:03:09.646Z,21.96
2023-11-07T10:05:38.326Z,21.96
2023-11-07T10:08:04.833Z,21.97
2023-11-07T10:10:31.691Z,21.97
2023-11-07T10:13:07.836Z,21.97
2023-11-07T10:15:34.479Z,21.97
2023-11-07T10:18:02.342Z,21.98
2023-11-07T10:20:32.379Z,22.00
2023-11-07T10:23:02.029Z,22.01
2023-11-07T10:25:28.620Z,21.98
2023-11-07T10:27:59.673Z,22.00
2023-11-07T10:30:38.161Z,22.00
2023-11-07T10:33:05.540Z,21.99
2023-11-07T10:35:32.680Z,22.00
2023-11-07T10:37:59.191Z,21.99
2023-11-07T10:40:25.771Z,21.99
2023-11-07T10:42:52.288Z,22.00
2023-11-07T10:45:21.317Z,22.01
2023-11-07T10:47:50.093Z,22.01
2023-11-07T10:50:18.548Z,22.01
2023-11-07T10:52:47.225Z,22.02
2023-11-07T10:55:14.576Z,22.00
2023-11-07T10:57:42.669Z,21.99
2023-11-07T11:00:19.200Z,21.96
2023-11-07T11:02:48.468Z,21.97
2023-11-07T11:05:17.422Z,21.96
2023-11-07T11:07:51.899Z,21.95
2023-11-07T11:10:21.955Z,21.91
2023-11-07T11:12:50.249Z,21.88
2023-11-07T11:15:18.278Z,21.87
2023-11-07T11:17:47.696Z,21.86
2023-11-07T11:20:14.469Z,21.86
2023-11-07T11:23:00.677Z,21.84
2023-11-07T11:25:46.083Z,21.84
2023-11-07T11:28:12.577Z,21.85
2023-11-07T11:30:39.993Z,21.83
2023-11-07T11:33:07.317Z,21.84
2023-11-07T11:35:35.636Z,21.85
2023-11-07T11:38:17.214Z,21.86
2023-11-07T11:40:46.912Z,21.86
2023-11-07T11:43:13.452Z,21.84
2023-11-07T11:45:46.478Z,21.82
2023-11-07T11:48:14.270Z,21.80
2023-11-07T11:50:40.989Z,21.78
2023-11-07T11:53:10.368Z,21.76
2023-11-07T11:55:56.905Z,21.73
2023-11-07T11:58:27.117Z,21.71
2023-11-07T12:00:54.275Z,21.68
2023-11-07T12:03:21.181Z,21.66
2023-11-07T12:06:07.190Z,21.65
2023-11-07T12:08:33.864Z,21.63
2023-11-07T12:11:01.276Z,21.60
2023-11-07T12:13:28.281Z,21.60
2023-11-07T12:15:55.058Z,21.59
2023-11-07T12:18:22.591Z,21.58
2023-11-07T12:20:49.861Z,21.57
2023-11-07T12:23:17.087Z,21.57
2023-11-07T12:25:50.684Z,21.56
2023-11-07T12:28:17.396Z,21.55
2023-11-07T12:30:54.065Z,21.51
2023-11-07T12:33:20.673Z,21.50
2023-11-07T12:35:49.858Z,21.51
2023-11-07T12:38:19.842Z,21.48
2023-11-07T12:40:48.333Z,21.47
2023-11-07T12:43:16.495Z,21.45
2023-11-07T12:45:43.884Z,21.46
2023-11-07T12:48:15.213Z,21.46
2023-11-07T12:50:48.492Z,21.44
2023-11-07T12:53:18.846Z,21.43
2023-11-07T12:55:52.319Z,21.43
2023-11-07T12:58:29.086Z,21.41
2023-11-07T13:00:57.867Z,21.39
2023-11-07T13:03:25.006Z,21.39
2023-11-07T13:05:58.604Z,21.38
2023-11-07T13:08:29.231Z,21.37
2023-11-07T13:11:16.096Z,21.37
2023-11-07T13:13:43.617Z,21.38
2023-11-07T13:16:10.319Z,21.37
2023-11-07T13:18:38.462Z,21.37
2023-11-07T13:21:05.826Z,21.34
2023-11-07T13:23:32.368Z,21.35
2023-11-07T13:25:59.080Z,21.35
2023-11-07T13:28:26.626Z,21.33
2023-11-07T13:30:53.979Z,21.32
2023-11-07T13:33:21.491Z,21.34
2023-11-07T13:35:49.349Z,21.32
2023-11-07T13:38:18.872Z,21.31
2023-11-07T13:40:46.720Z,21.30
2023-11-07T13:43:13.561Z,21.30
2023-11-07T13:45:42.530Z,21.29
2023-11-07T13:48:10.596Z,21.29
2023-11-07T13:50:37.651Z,21.27
2023-11-07T13:53:06.204Z,21.26
2023-11-07T13:55:33.663Z,21.24
2023-11-07T13:58:04.971Z,21.25
2023-11-07T14:00:32.361Z,21.22
2023-11-07T14:02:58.853Z,21.21
2023-11-07T14:05:25.413Z,21.22
2023-11-07T14:07:52.649Z,21.22
2023-11-07T14:10:22.833Z,21.22
2023-11-07T14:12:49.936Z,21.21
2023-11-07T14:15:17.508Z,21.21
2023-11-07T14:17:44.925Z,21.21
2023-11-07T14:20:14.716Z,21.23
2023-11-07T14:22:44.138Z,21.21
2023-11-07T14:25:14.792Z,21.22
2023-11-07T14:27:41.903Z,21.21
2023-11-07T14:30:21.611Z,21.19
2023-11-07T14:32:56.192Z,21.18
2023-11-07T14:35:22.887Z,21.17
2023-11-07T14:37:51.543Z,21.17
2023-11-07T14:40:18.093Z,21.17
2023-11-07T14:42:44.646Z,21.17
2023-11-07T14:45:12.098Z,21.17
2023-11-07T14:47:43.449Z,21.16
2023-11-07T14:50:12.482Z,21.16
2023-11-07T14:52:42.180Z,21.17
2023-11-07T14:55:11.528Z,21.16
2023-11-07T14:57:39.734Z,21.13
2023-11-07T15:00:10.208Z,21.14
2023-11-07T15:02:37.715Z,21.15
2023-11-07T15:05:04.631Z,21.14
2023-11-07T15:07:32.609Z,21.12
2023-11-07T15:09:59.165Z,21.14
2023-11-07T15:12:25.671Z,21.11
2023-11-07T15:14:52.884Z,21.12
2023-11-07T15:17:19.676Z,21.11
2023-11-07T15:19:47.653Z,21.11
2023-11-07T15:22:14.200Z,21.09
2023-11-07T15:24:40.700Z,21.08
2023-11-07T15:27:09.615Z,21.08
2023-11-07T15:29:39.016Z,21.08
2023-11-07T15:32:06.020Z,21.08
2023-11-07T15:34:32.542Z,21.07
2023-11-07T15:36:59.093Z,21.06
2023-11-07T15:39:25.836Z,21.07
2023-11-07T15:41:52.458Z,21.04
2023-11-07T15:44:19.004Z,21.06
2023-11-07T15:46:45.499Z,21.04
2023-11-07T15:49:12.332Z,21.06
2023-11-07T15:51:39.517Z,21.06
2023-11-07T15:54:07.631Z,21.07
2023-11-07T15:56:35.377Z,21.08
2023-11-07T15:59:02.141Z,21.10
2023-11-07T16:01:28.917Z,21.12
2023-11-07T16:03:55.816Z,21.14
2023-11-07T16:06:23.519Z,21.15
2023-11-07T16:08:50.224Z,21.16
2023-11-07T16:11:16.832Z,21.18
2023-11-07T16:13:43.837Z,21.19
2023-11-07T16:16:10.318Z,21.20
2023-11-07T16:18:37.815Z,21.19
2023-11-07T16:21:04.946Z,21.20
2023-11-07T16:23:31.831Z,21.23
2023-11-07T16:26:00.683Z,21.24
2023-11-07T16:28:27.985Z,21.23
2023-11-07T16:30:54.568Z,21.23
2023-11-07T16:33:21.472Z,21.23
2023-11-07T16:35:48.028Z,21.22
2023-11-07T16:38:16.869Z,21.23
2023-11-07T16:40:43.532Z,21.24
2023-11-07T16:43:11.021Z,21.26
2023-11-07T16:45:37.647Z,21.26
2023-11-07T16:48:05.766Z,21.24
2023-11-07T16:50:32.230Z,21.25
2023-11-07T16:52:58.909Z,21.25
2023-11-07T16:55:25.591Z,21.26
2023-11-07T16:57:52.081Z,21.25
2023-11-07T17:00:22.750Z,21.24
2023-11-07T17:02:49.557Z,21.24
2023-11-07T17:05:17.006Z,21.25
2023-11-07T17:07:43.670Z,21.24
2023-11-07T17:10:12.077Z,21.24
2023-11-07T17:12:39.298Z,21.25
2023-11-07T17:15:08.842Z,21.26
2023-11-07T17:17:35.864Z,21.27
2023-11-07T17:20:07.208Z,21.27
2023-11-07T17:22:35.951Z,21.27
2023-11-07T17:25:02.698Z,21.26
2023-11-07T17:27:29.290Z,21.25
2023-11-07T17:29:55.939Z,21.26
2023-11-07T17:32:22.533Z,21.24
2023-11-07T17:34:49.298Z,21.25
2023-11-07T17:37:15.845Z,21.24
2023-11-07T17:39:42.650Z,21.27
2023-11-07T17:42:10.938Z,21.28
2023-11-07T17:44:39.227Z,21.26
2023-11-07T17:47:06.357Z,21.26
2023-11-07T17:49:32.877Z,21.27
2023-11-07T17:51:59.353Z,21.27
2023-11-07T17:54:25.922Z,21.26
2023-11-07T17:56:52.623Z,21.26
2023-11-07T17:59:19.127Z,21.27
2023-11-07T18:01:45.658Z,21.24
2023-11-07T18:04:12.564Z,21.23
2023-11-07T18:06:41.540Z,21.24
2023-11-07T18:09:14.129Z,21.24
2023-11-07T18:11:42.017Z,21.24
2023-11-07T18:14:12.618Z,21.24
2023-11-07T18:16:39.684Z,21.22
2023-11-07T18:19:06.323Z,21.21
2023-11-07T18:21:34.345Z,21.21
2023-11-07T18:24:04.318Z,21.21
2023-11-07T18:26:31.348Z,21.22
2023-11-07T18:28:58.197Z,21.21
2023-11-07T18:31:24.666Z,21.19
2023-11-07T18:33:51.461Z,21.19
2023-11-07T18:36:19.091Z,21.20
2023-11-07T18:38:46.784Z,21.17
2023-11-07T18:41:13.279Z,21.17
2023-11-07T18:43:39.820Z,21.16
2023-11-07T18:46:06.618Z,21.17
2023-11-07T18:48:34.921Z,21.16
2023-11-07T18:51:01.947Z,21.15
2023-11-07T18:53:42.951Z,21.17
2023-11-07T18:56:12.265Z,21.15
2023-11-07T18:58:38.766Z,21.13
2023-11-07T19:01:05.296Z,21.12
2023-11-07T19:03:32.547Z,21.12
2023-11-07T19:05:59.626Z,21.13
2023-11-07T19:08:26.184Z,21.12
2023-11-07T19:10:53.033Z,21.11
2023-11-07T19:13:19.508Z,21.11
2023-11-07T19:15:45.958Z,21.10
2023-11-07T19:18:13.427Z,21.09
2023-11-07T19:20:39.971Z,21.08
2023-11-07T19:23:06.570Z,21.09
2023-11-07T19:25:33.006Z,21.08
2023-11-07T19:27:59.920Z,21.09
2023-11-07T19:30:26.973Z,21.08
2023-11-07T19:32:53.510Z,21.08
2023-11-07T19:35:20.121Z,21.08
2023-11-07T19:37:49.387Z,21.08
2023-11-07T19:40:20.206Z,21.06
2023-11-07T19:42:49.260Z,21.04
2023-11-07T19:45:17.057Z,21.04
2023-11-07T19:47:44.044Z,21.02
2023-11-07T19:50:14.188Z,21.01
2023-11-07T19:52:42.097Z,20.98
2023-11-07T19:55:08.894Z,20.96
2023-11-07T19:57:37.965Z,20.97
2023-11-07T20:00:09.900Z,20.95
2023-11-07T20:02:39.326Z,20.92
2023-11-07T20:05:07.001Z,20.91
2023-11-07T20:07:40.503Z,20.89
2023-11-07T20:10:12.426Z,20.89
2023-11-07T20:12:39.486Z,20.88
2023-11-07T20:15:06.661Z,20.87
2023-11-07T20:17:33.094Z,20.86
2023-11-07T20:19:59.937Z,20.85
2023-11-07T20:22:26.463Z,20.84
2023-11-07T20:24:53.533Z,20.85
2023-11-07T20:27:20.097Z,20.83
2023-11-07T20:29:46.566Z,20.84
2023-11-07T20:32:13.675Z,20.83
2023-11-07T20:34:40.384Z,20.82
2023-11-07T20:37:06.883Z,20.81
2023-11-07T20:39:33.785Z,20.79
2023-11-07T20:42:00.272Z,20.81
2023-11-07T20:44:32.249Z,20.80
2023-11-07T20:47:06.068Z,20.80
2023-11-07T20:49:32.676Z,20.77
2023-11-07T20:51:59.160Z,20.76
2023-11-07T20:54:25.870Z,20.74
2023-11-07T20:56:52.329Z,20.74
2023-11-07T20:59:18.860Z,20.75
2023-11-07T21:01:45.426Z,20.76
2023-11-07T21:04:12.003Z,20.75
2023-11-07T21:06:38.599Z,20.74
2023-11-07T21:09:05.159Z,20.74
2023-11-07T21:11:31.644Z,20.72
2023-11-07T21:13:58.273Z,20.73
2023-11-07T21:16:25.069Z,20.72
2023-11-07T21:18:51.716Z,20.71
2023-11-07T21:21:18.422Z,20.71
2023-11-07T21:23:44.970Z,20.70
2023-11-07T21:26:11.814Z,20.68
2023-11-07T21:28:38.257Z,20.67
2023-11-07T21:31:06.316Z,20.65
2023-11-07T21:33:33.068Z,20.64
2023-11-07T21:35:59.625Z,20.66
2023-11-07T21:38:26.889Z,20.64
2023-11-07T21:40:54.101Z,20.66
2023-11-07T21:43:21.149Z,20.63
2023-11-07T21:45:48.184Z,20.63
2023-11-07T21:48:15.264Z,20.61
2023-11-07T21:50:42.063Z,20.65
2023-11-07T21:53:08.551Z,20.66
2023-11-07T21:55:35.055Z,20.69
2023-11-07T21:58:01.468Z,20.70
2023-11-07T22:00:28.001Z,20.72
2023-11-07T22:02:54.621Z,20.74
2023-11-07T22:05:22.363Z,20.75
2023-11-07T22:07:49.844Z,20.77
2023-11-07T22:10:17.258Z,20.79
2023-11-07T22:12:44.125Z,20.81
2023-11-07T22:15:14.415Z,20.81
2023-11-07T22:17:44.560Z,20.81
2023-11-07T22:20:13.536Z,20.78
2023-11-07T22:22:41.456Z,20.79
2023-11-07T22:25:09.843Z,20.78
2023-11-07T22:27:36.809Z,20.78
2023-11-07T22:30:09.618Z,20.77
2023-11-07T22:32:37.683Z,20.78
2023-11-07T22:35:04.721Z,20.78
2023-11-07T22:37:31.190Z,20.83
2023-11-07T22:39:57.711Z,20.86
2023-11-07T22:42:24.338Z,20.88
2023-11-07T22:44:50.782Z,20.87
2023-11-07T22:47:17.219Z,20.87
2023-11-07T22:49:43.741Z,20.88
2023-11-07T22:52:12.135Z,20.88
2023-11-07T22:54:39.047Z,20.88
2023-11-07T22:57:05.869Z,20.89
2023-11-07T22:59:32.575Z,20.87
2023-11-07T23:01:59.070Z,20.87
2023-11-07T23:04:25.624Z,20.86
2023-11-07T23:06:52.503Z,20.88
2023-11-07T23:09:19.728Z,20.87
2023-11-07T23:11:46.418Z,20.87
2023-11-07T23:14:14.762Z,20.86
2023-11-07T23:16:41.488Z,20.86
2023-11-07T23:19:08.289Z,20.87
2023-11-07T23:21:34.941Z,20.87
2023-11-07T23:24:02.572Z,20.86
2023-11-07T23:26:34.841Z,20.88
2023-11-07T23:29:05.349Z,20.87
2023-11-07T23:31:34.716Z,20.87
2023-11-07T23:34:01.275Z,20.86
2023-11-07T23:36:28.007Z,20.87
2023-11-07T23:38:54.524Z,20.86
2023-11-07T23:41:22.639Z,20.88
2023-11-07T23:43:49.215Z,20.88
2023-11-07T23:46:15.658Z,20.87
2023-11-07T23:48:42.203Z,20.88
2023-11-07T23:51:09.403Z,20.88
2023-11-07T23:53:35.874Z,20.88
2023-11-07T23:56:02.414Z,20.87
2023-11-07T23:58:28.915Z,20.88
